Time;durP1;ratioP1;P1;durP2;ratioP2;P2;SDS_P1;SDS_P2;PMS_P1;PMS_P2;Temp;Humidity;BMP_temperature;BMP_pressure;BME280_temperature;BME280_humidity;BME280_pressure;Samples;Min_cycle;Max_cycle;Signal;HPM_P1;HPM_P2
2022/02/08 00:01:27;;;;;;;14.02;5.82;;;-1.90;99.90;;;;;;5044432;28;20059;-85
2022/02/08 00:03:54;;;;;;;17.55;6.22;;;-1.90;99.90;;;;;;5027172;28;20057;-85
2022/02/08 00:08:48;;;;;;;12.32;5.90;;;-1.90;99.90;;;;;;5035652;28;20049;-84
2022/02/08 00:11:16;;;;;;;19.65;5.60;;;-2.00;99.90;;;;;;5017504;28;20128;-84
2022/02/08 00:13:42;;;;;;;13.63;6.30;;;-2.00;99.90;;;;;;5035023;28;20088;-84
2022/02/08 00:16:09;;;;;;;18.98;7.05;;;-2.00;99.90;;;;;;5017598;28;20055;-84
2022/02/08 00:18:36;;;;;;;11.52;6.07;;;-2.00;99.90;;;;;;5017522;28;20052;-84
2022/02/08 00:21:03;;;;;;;13.35;5.60;;;-2.10;99.90;;;;;;5017521;28;20140;-82
2022/02/08 00:23:29;;;;;;;9.90;5.15;;;-2.10;99.90;;;;;;5017815;28;20073;-84
2022/02/08 00:25:56;;;;;;;10.85;5.32;;;-2.10;99.90;;;;;;5017160;28;20531;-84
2022/02/08 00:28:23;;;;;;;13.02;5.47;;;-2.20;99.90;;;;;;5034790;28;20491;-84
2022/02/08 00:30:49;;;;;;;13.48;5.95;;;-2.30;99.90;;;;;;5017477;28;20140;-84
2022/02/08 00:33:16;;;;;;;13.52;4.60;;;-2.20;99.90;;;;;;5018002;28;20132;-85
2022/02/08 00:35:43;;;;;;;15.88;6.13;;;-2.30;99.90;;;;;;5016970;28;20151;-84
2022/02/08 00:38:12;;;;;;;18.23;5.63;;;-2.40;99.90;;;;;;5035126;28;20136;-85
2022/02/08 00:40:39;;;;;;;17.55;6.18;;;-2.40;99.90;;;;;;5017128;28;20107;-85
2022/02/08 00:43:08;;;;;;;16.23;6.35;;;-2.40;99.90;;;;;;5017424;28;20132;-85
2022/02/08 00:48:29;;;;;;;20.33;6.30;;;-2.40;99.90;;;;;;5035331;28;20152;-85
2022/02/08 00:50:55;;;;;;;14.10;6.40;;;-2.40;99.90;;;;;;5017675;28;20081;-85
2022/02/08 00:53:23;;;;;;;15.32;6.30;;;-2.40;99.90;;;;;;5017121;28;20160;-85
2022/02/08 00:55:50;;;;;;;13.82;6.40;;;-2.40;99.90;;;;;;5017390;28;20136;-85
2022/02/08 00:58:17;;;;;;;12.57;6.07;;;-2.40;99.90;;;;;;5034601;28;20060;-85
2022/02/08 01:00:44;;;;;;;17.65;6.38;;;-2.40;99.90;;;;;;5017118;28;20045;-85
2022/02/08 01:03:11;;;;;;;20.83;6.88;;;-2.50;99.90;;;;;;5017465;28;20459;-85
2022/02/08 01:05:44;;;;;;;21.08;7.82;;;-2.30;99.90;;;;;;5018550;28;20574;-85
2022/02/08 01:08:11;;;;;;;17.02;7.85;;;-2.00;99.90;;;;;;5017433;28;20148;-85
2022/02/08 01:10:40;;;;;;;22.50;8.63;;;-1.90;99.90;;;;;;5034838;28;20484;-85
2022/02/08 01:13:08;;;;;;;20.40;9.65;;;-1.80;99.90;;;;;;5017092;28;20136;-86
2022/02/08 01:15:36;;;;;;;18.42;9.25;;;-1.60;99.90;;;;;;5034751;28;20124;-85
2022/02/08 01:18:05;;;;;;;19.55;9.70;;;-1.40;99.90;;;;;;5021270;28;20054;-86
2022/02/08 01:20:35;;;;;;;25.05;10.30;;;-1.10;99.90;;;;;;5016353;28;20128;-86
2022/02/08 01:23:06;;;;;;;23.73;9.90;;;-1.00;99.90;;;;;;5016467;28;20128;-85
2022/02/08 01:25:48;;;;;;;29.38;10.77;;;-0.80;99.90;;;;;;5019629;28;20095;-85
2022/02/08 01:28:25;;;;;;;21.48;11.10;;;-0.70;99.90;;;;;;5020475;28;20053;-85
2022/02/08 01:39:04;;;;;;;25.93;9.80;;;-0.20;99.90;;;;;;5038028;28;20060;-84
2022/02/08 01:41:53;;;;;;;20.17;8.60;;;-0.10;99.90;;;;;;5020633;28;20145;-84
2022/02/08 01:51:51;;;;;;;16.35;6.15;;;0.70;99.90;;;;;;5039165;28;20165;-83
2022/02/08 01:54:18;;;;;;;17.05;6.03;;;0.90;99.90;;;;;;5022291;28;20109;-84
2022/02/08 01:56:45;;;;;;;24.50;7.03;;;0.90;99.90;;;;;;5022020;28;20047;-84
2022/02/08 01:59:13;;;;;;;14.95;5.18;;;1.00;99.90;;;;;;5040501;28;20570;-84
2022/02/08 02:01:41;;;;;;;13.30;6.20;;;1.00;99.90;;;;;;5022586;28;20064;-84
2022/02/08 02:04:07;;;;;;;18.33;5.47;;;1.10;99.90;;;;;;5039987;28;20091;-84
2022/02/08 02:06:40;;;;;;;15.63;5.22;;;1.50;99.90;;;;;;5041703;28;20049;-84
2022/02/08 02:09:07;;;;;;;13.88;5.00;;;1.70;99.90;;;;;;5024301;28;20073;-84
2022/02/08 02:11:34;;;;;;;14.45;4.35;;;1.80;99.90;;;;;;5024933;28;20049;-83
2022/02/08 02:14:01;;;;;;;11.40;3.70;;;1.90;99.90;;;;;;5025411;28;20197;-83
2022/02/08 02:18:54;;;;;;;10.23;4.05;;;2.00;99.90;;;;;;5027830;23;20570;-88
2022/02/08 02:21:21;;;;;;;13.55;3.97;;;2.00;99.90;;;;;;5015668;28;20046;-89
2022/02/08 02:23:49;;;;;;;10.40;3.90;;;2.10;99.90;;;;;;5014636;28;20049;-87
2022/02/08 02:26:16;;;;;;;10.70;4.03;;;2.30;99.90;;;;;;5015625;28;20050;-87
2022/02/08 02:28:43;;;;;;;10.77;3.58;;;2.40;99.90;;;;;;5014859;28;20081;-88
2022/02/08 02:31:10;;;;;;;6.93;3.05;;;2.40;99.90;;;;;;5015714;28;20041;-87
2022/02/08 02:33:37;;;;;;;8.30;2.80;;;2.50;99.90;;;;;;5015309;28;20052;-88
2022/02/08 02:36:04;;;;;;;7.80;2.70;;;2.60;99.90;;;;;;5014071;28;20054;-89
2022/02/08 02:38:31;;;;;;;8.93;3.10;;;2.80;99.90;;;;;;5014512;28;20056;-87
2022/02/08 02:40:57;;;;;;;11.60;3.47;;;2.90;99.90;;;;;;5014441;28;20046;-87
2022/02/08 02:43:27;;;;;;;12.70;3.00;;;2.90;99.90;;;;;;5014876;28;20050;-86
2022/02/08 02:45:55;;;;;;;12.95;3.85;;;2.90;99.90;;;;;;5014270;28;20060;-87
2022/02/08 02:48:21;;;;;;;7.53;2.78;;;2.90;99.90;;;;;;5014259;28;20042;-87
2022/02/08 02:50:52;;;;;;;10.57;3.20;;;3.00;99.90;;;;;;5014372;28;20153;-87
2022/02/08 02:53:20;;;;;;;6.72;2.45;;;3.00;99.90;;;;;;5014056;28;20056;-87
2022/02/08 02:55:47;;;;;;;6.63;2.20;;;3.10;99.90;;;;;;5014148;28;20053;-86
2022/02/08 02:58:15;;;;;;;7.68;2.38;;;3.10;99.90;;;;;;5014272;28;20060;-87
2022/02/08 03:00:49;;;;;;;9.50;2.40;;;3.20;99.90;;;;;;5013999;28;20056;-86
2022/02/08 03:03:29;;;;;;;6.00;2.10;;;3.20;99.90;;;;;;5013723;28;20052;-86
2022/02/08 03:17:33;;;;;;;8.48;2.78;;;3.20;99.90;;;;;;5013599;28;20522;-87
2022/02/08 03:19:58;;;;;;;7.75;1.90;;;3.40;99.90;;;;;;5014495;28;20483;-86
2022/02/08 03:22:25;;;;;;;7.43;2.33;;;3.40;99.90;;;;;;5014092;28;20050;-86
2022/02/08 03:24:52;;;;;;;8.27;2.25;;;3.40;99.90;;;;;;5013356;28;20049;-87
2022/02/08 03:27:18;;;;;;;7.28;2.33;;;3.40;99.90;;;;;;5013163;28;20513;-87
2022/02/08 03:29:45;;;;;;;5.50;2.17;;;3.40;99.90;;;;;;5012841;28;20476;-87
2022/02/08 03:32:14;;;;;;;7.47;2.25;;;3.50;99.90;;;;;;5013263;28;20046;-86
2022/02/08 03:34:41;;;;;;;5.05;2.20;;;3.50;99.90;;;;;;5012868;28;20050;-86
2022/02/08 03:37:08;;;;;;;9.35;2.20;;;3.50;99.90;;;;;;5012985;28;20092;-87
2022/02/08 03:39:38;;;;;;;7.93;2.45;;;3.60;99.90;;;;;;5014157;28;20050;-87
2022/02/08 03:42:15;;;;;;;6.90;2.20;;;3.60;99.90;;;;;;5012922;28;20058;-88
2022/02/08 03:44:46;;;;;;;13.48;2.35;;;3.80;99.90;;;;;;4996901;28;20482;-87
2022/02/08 03:47:13;;;;;;;10.88;2.22;;;3.80;99.90;;;;;;5012203;28;20482;-86
2022/02/08 03:49:40;;;;;;;11.30;2.28;;;3.90;99.90;;;;;;5013617;28;20064;-87
2022/02/08 03:52:07;;;;;;;11.65;2.00;;;3.90;99.90;;;;;;5012949;28;20132;-87
2022/02/08 03:54:35;;;;;;;5.18;1.77;;;3.90;99.90;;;;;;5012798;28;20048;-86
2022/02/08 03:57:06;;;;;;;6.90;2.00;;;3.90;99.90;;;;;;5012474;28;20056;-88
2022/02/08 03:59:33;;;;;;;7.07;1.40;;;4.00;99.90;;;;;;4996299;28;20049;-86
2022/02/08 04:04:44;;;;;;;6.47;1.60;;;3.90;99.90;;;;;;5013546;28;20057;-87
2022/02/08 04:10:09;;;;;;;12.00;2.20;;;3.90;99.90;;;;;;5005061;28;20050;-88
2022/02/08 04:12:47;;;;;;;8.13;2.00;;;3.90;99.90;;;;;;4996564;28;20046;-85
2022/02/08 04:34:22;;;;;;;11.85;1.95;;;3.90;99.90;;;;;;5013545;28;20053;-86
2022/02/08 04:42:08;;;;;;;6.72;1.73;;;3.70;99.90;;;;;;5013274;28;20050;-87
2022/02/08 04:44:58;;;;;;;5.18;1.85;;;3.70;99.90;;;;;;5013139;28;20050;-87
2022/02/08 04:47:33;;;;;;;8.45;2.00;;;3.70;99.90;;;;;;4995932;28;20070;-86
2022/02/08 04:50:00;;;;;;;5.57;1.80;;;3.70;99.90;;;;;;4996004;28;20064;-86
2022/02/08 04:52:29;;;;;;;7.60;1.75;;;3.70;99.90;;;;;;5013003;28;20391;-87
2022/02/08 04:57:37;;;;;;;5.57;2.13;;;3.60;99.90;;;;;;5012696;28;20050;-87
2022/02/08 05:00:17;;;;;;;5.15;2.00;;;3.60;99.90;;;;;;5015590;28;20057;-87
2022/02/08 05:28:25;;;;;;;6.75;1.95;;;3.40;99.90;;;;;;5016471;28;20081;-88
2022/02/08 05:36:03;;;;;;;6.68;2.00;;;3.50;99.90;;;;;;5016497;28;20064;-88
2022/02/08 05:41:43;;;;;;;5.28;1.30;;;3.50;99.90;;;;;;5016432;28;20049;-87
2022/02/08 05:44:28;;;;;;;8.30;2.25;;;3.50;99.90;;;;;;5015520;28;20384;-87
2022/02/08 05:46:56;;;;;;;7.40;1.77;;;3.50;99.90;;;;;;5015009;28;20475;-88
2022/02/08 05:49:25;;;;;;;5.85;2.08;;;3.50;99.90;;;;;;4998804;28;20053;-87
2022/02/08 05:54:21;;;;;;;5.32;1.67;;;3.50;99.90;;;;;;5016126;28;20049;-86
2022/02/08 05:56:52;;;;;;;6.03;1.50;;;3.40;99.90;;;;;;5015173;28;20050;-88
2022/02/08 05:59:23;;;;;;;10.20;1.95;;;3.40;99.90;;;;;;5015295;28;20046;-88
2022/02/08 06:01:50;;;;;;;6.90;1.80;;;3.40;99.90;;;;;;5015168;28;20089;-89
2022/02/08 06:04:17;;;;;;;4.40;1.48;;;3.40;99.90;;;;;;5016297;28;20080;-88
2022/02/08 06:06:44;;;;;;;4.43;1.40;;;3.40;99.90;;;;;;5015087;28;20387;-88
2022/02/08 06:09:11;;;;;;;7.88;1.58;;;3.40;99.90;;;;;;4999140;28;20049;-88
2022/02/08 06:11:39;;;;;;;4.22;1.35;;;3.40;99.90;;;;;;5014596;28;20058;-87
2022/02/08 06:14:07;;;;;;;4.70;1.30;;;3.40;99.90;;;;;;5015178;28;20046;-87
2022/02/08 06:16:35;;;;;;;5.10;1.10;;;3.40;99.90;;;;;;5014854;28;20061;-88
2022/02/08 06:19:06;;;;;;;5.13;1.80;;;3.40;99.90;;;;;;5016080;28;20060;-88
2022/02/08 06:21:33;;;;;;;4.15;1.42;;;3.30;99.90;;;;;;5015984;28;20056;-87
2022/02/08 06:24:00;;;;;;;4.18;1.88;;;3.30;99.90;;;;;;5015679;28;20050;-89
2022/02/08 06:26:27;;;;;;;4.07;1.50;;;3.30;99.90;;;;;;5017633;28;20041;-89
2022/02/08 06:29:05;;;;;;;5.05;1.40;;;3.30;99.90;;;;;;5017576;28;20049;-87
2022/02/08 06:31:32;;;;;;;6.88;1.40;;;3.40;99.90;;;;;;5035449;28;20481;-86
2022/02/08 06:33:59;;;;;;;5.07;1.20;;;3.50;99.90;;;;;;5017971;28;20140;-87
2022/02/08 06:36:26;;;;;;;3.38;1.90;;;3.50;99.90;;;;;;5035286;28;20049;-89
2022/02/08 06:38:52;;;;;;;4.63;1.40;;;3.50;99.90;;;;;;5035642;28;20046;-88
2022/02/08 06:41:19;;;;;;;8.63;1.50;;;3.50;99.90;;;;;;5018130;28;20089;-88
2022/02/08 06:43:47;;;;;;;4.45;1.42;;;3.50;99.90;;;;;;5018266;28;20052;-89
2022/02/08 06:46:14;;;;;;;3.55;1.10;;;3.50;99.90;;;;;;5017916;28;20053;-88
2022/02/08 06:48:40;;;;;;;2.58;0.98;;;3.50;99.90;;;;;;5032430;28;20049;-86
2022/02/08 06:51:07;;;;;;;3.53;1.58;;;3.50;99.90;;;;;;5016671;28;20055;-90
2022/02/08 06:53:34;;;;;;;4.07;1.50;;;3.50;99.90;;;;;;5015019;28;20046;-87
2022/02/08 06:56:02;;;;;;;7.63;1.63;;;3.40;99.90;;;;;;5015998;28;20045;-94
2022/02/08 06:58:35;;;;;;;2.25;1.15;;;3.40;99.90;;;;;;5016645;28;20061;-89
2022/02/08 07:01:04;;;;;;;4.93;1.20;;;3.40;99.90;;;;;;5025718;28;20045;-89
2022/02/08 07:03:31;;;;;;;4.20;1.23;;;3.40;99.90;;;;;;5012178;28;20129;-89
2022/02/08 07:05:58;;;;;;;2.40;1.05;;;3.40;99.90;;;;;;5015415;28;20156;-89
2022/02/08 07:08:24;;;;;;;2.25;1.02;;;3.40;99.90;;;;;;5016142;28;20045;-88
2022/02/08 07:10:51;;;;;;;2.45;1.10;;;3.50;99.90;;;;;;5009693;28;20089;-86
2022/02/08 07:13:18;;;;;;;2.97;1.50;;;3.60;99.90;;;;;;5015416;28;20516;-89
2022/02/08 07:15:45;;;;;;;2.38;1.25;;;3.60;99.90;;;;;;5015913;28;20080;-88
2022/02/08 07:18:12;;;;;;;3.00;1.20;;;3.70;99.90;;;;;;5014259;28;20148;-89
2022/02/08 07:20:40;;;;;;;3.80;1.30;;;3.70;99.90;;;;;;5014947;28;20378;-87
2022/02/08 07:23:07;;;;;;;4.97;1.45;;;3.70;99.90;;;;;;5015846;28;20045;-89
2022/02/08 07:25:34;;;;;;;2.28;1.27;;;3.70;99.90;;;;;;5016596;28;20053;-88
2022/02/08 07:28:01;;;;;;;4.25;1.60;;;3.70;99.90;;;;;;5014079;28;20133;-87
2022/02/08 07:30:30;;;;;;;7.85;1.92;;;3.70;99.90;;;;;;5016774;28;20067;-86
2022/02/08 07:32:56;;;;;;;4.50;1.67;;;3.80;99.90;;;;;;5016961;28;20053;-89
2022/02/08 07:35:30;;;;;;;5.82;1.40;;;3.80;99.90;;;;;;5017012;28;20069;-87
2022/02/08 07:38:06;;;;;;;4.40;1.48;;;3.80;99.90;;;;;;5018540;28;20508;-87
2022/02/08 07:43:02;;;;;;;5.50;1.75;;;3.80;99.90;;;;;;5034207;28;20412;-90
2022/02/08 07:45:29;;;;;;;6.63;1.45;;;3.80;99.90;;;;;;5016427;28;20232;-87
2022/02/08 07:47:56;;;;;;;4.65;1.63;;;3.90;99.90;;;;;;5016869;28;20046;-87
2022/02/08 07:50:24;;;;;;;8.10;1.67;;;3.90;99.90;;;;;;5016459;28;20053;-89
2022/02/08 07:52:52;;;;;;;6.28;1.63;;;4.00;99.90;;;;;;5016734;28;20132;-88
2022/02/08 07:55:20;;;;;;;3.60;1.85;;;4.00;99.90;;;;;;5016300;28;20058;-87
2022/02/08 07:57:47;;;;;;;5.15;1.65;;;4.00;99.90;;;;;;5016628;28;20056;-87
2022/02/08 08:00:16;;;;;;;5.88;2.05;;;4.10;99.90;;;;;;5016730;28;20049;-88
2022/02/08 08:02:43;;;;;;;2.80;1.60;;;4.20;99.90;;;;;;5016473;28;20057;-87
2022/02/08 08:05:10;;;;;;;2.47;1.48;;;4.30;99.90;;;;;;5016208;28;20517;-89
2022/02/08 08:07:37;;;;;;;3.20;1.20;;;4.40;99.90;;;;;;5016336;28;20053;-90
2022/02/08 08:10:06;;;;;;;3.42;1.58;;;4.40;99.90;;;;;;5016385;28;20045;-90
2022/02/08 08:12:34;;;;;;;3.42;1.40;;;4.40;99.90;;;;;;5016394;28;20401;-88
2022/02/08 08:15:10;;;;;;;3.97;1.40;;;4.40;99.90;;;;;;5016246;28;20452;-88
2022/02/08 08:20:20;;;;;;;3.72;1.15;;;4.90;99.90;;;;;;5033541;28;20042;-89
2022/02/08 08:22:47;;;;;;;3.28;1.50;;;4.90;99.90;;;;;;5016376;28;20049;-89
2022/02/08 08:25:13;;;;;;;3.60;0.98;;;4.90;99.90;;;;;;5016542;28;20466;-88
2022/02/08 08:27:40;;;;;;;3.22;1.00;;;4.80;99.90;;;;;;5015915;28;20493;-87
2022/02/08 08:30:09;;;;;;;3.75;1.40;;;4.70;99.90;;;;;;5016139;28;20152;-88
2022/02/08 08:32:39;;;;;;;2.25;1.00;;;4.70;99.90;;;;;;5015970;28;20053;-88
2022/02/08 08:35:08;;;;;;;2.15;0.80;;;4.60;99.90;;;;;;5014343;28;20065;-88
2022/02/08 08:37:40;;;;;;;1.85;0.90;;;4.60;99.90;;;;;;5014056;28;20070;-90
2022/02/08 08:40:37;;;;;;;2.05;1.20;;;4.60;99.90;;;;;;5013716;28;20046;-92
2022/02/08 08:43:30;;;;;;;2.30;0.93;;;4.60;99.90;;;;;;5014575;28;20081;-88
2022/02/08 08:53:44;;;;;;;3.55;0.80;;;4.70;99.90;;;;;;5035326;28;20053;-88
2022/02/08 08:56:10;;;;;;;0.80;0.50;;;4.80;99.90;;;;;;5016387;28;20053;-87
2022/02/08 08:58:42;;;;;;;0.70;0.60;;;4.80;99.90;;;;;;5012415;28;20058;-90
2022/02/08 09:01:13;;;;;;;0.90;0.70;;;4.80;99.90;;;;;;5012702;28;20137;-88
2022/02/08 09:03:41;;;;;;;0.82;0.60;;;4.70;99.90;;;;;;5012201;28;20046;-88
2022/02/08 09:06:09;;;;;;;2.80;0.80;;;4.60;99.90;;;;;;5013260;28;20093;-88
2022/02/08 09:08:40;;;;;;;1.88;0.60;;;4.50;99.90;;;;;;5011860;28;20058;-88
2022/02/08 09:11:15;;;;;;;1.05;0.60;;;4.30;99.90;;;;;;5013541;28;20053;-88
2022/02/08 09:13:50;;;;;;;3.72;1.60;;;4.40;99.90;;;;;;5013300;28;20077;-87
2022/02/08 09:16:39;;;;;;;1.95;0.85;;;4.40;99.90;;;;;;5010885;28;20495;-86
2022/02/08 09:27:43;;;;;;;1.70;0.73;;;4.40;99.90;;;;;;5013091;28;20474;-88
2022/02/08 09:30:06;;;;;;;1.73;0.73;;;4.40;99.90;;;;;;5013625;28;20060;-88
2022/02/08 09:35:08;;;;;;;;;;;4.50;99.90;;;;;;5032903;28;20052;-87
2022/02/08 09:37:35;;;;;;;1.40;0.50;;;4.50;99.90;;;;;;5014716;28;20431;-87
2022/02/08 09:40:05;;;;;;;2.42;0.80;;;4.60;99.90;;;;;;5015345;28;20041;-88
2022/02/08 09:42:33;;;;;;;0.60;0.55;;;4.60;99.90;;;;;;5015348;28;20140;-86
2022/02/08 09:45:00;;;;;;;1.73;0.93;;;4.70;99.90;;;;;;5032536;28;20486;-88
2022/02/08 09:47:33;;;;;;;2.28;0.68;;;4.70;99.90;;;;;;5018560;28;20056;-88
2022/02/08 09:50:08;;;;;;;0.40;0.40;;;4.80;99.90;;;;;;5018331;28;20050;-87
2022/02/08 09:52:39;;;;;;;0.77;0.77;;;4.80;99.90;;;;;;5018855;28;20049;-89
2022/02/08 09:55:06;;;;;;;2.50;0.90;;;4.90;99.90;;;;;;5018777;28;20379;-88
2022/02/08 09:57:33;;;;;;;1.50;0.90;;;5.00;99.90;;;;;;5018465;28;20498;-88
2022/02/08 09:59:59;;;;;;;1.45;0.82;;;5.30;99.90;;;;;;5018729;28;20046;-87
2022/02/08 10:02:27;;;;;;;2.28;0.55;;;5.40;99.90;;;;;;5018293;28;20107;-87
2022/02/08 10:04:58;;;;;;;0.80;0.40;;;5.50;99.90;;;;;;5036032;28;20051;-88
2022/02/08 10:07:27;;;;;;;2.15;0.70;;;5.50;99.90;;;;;;5018700;28;20056;-87
2022/02/08 10:09:54;;;;;;;3.15;1.15;;;5.50;99.90;;;;;;5018860;28;20103;-87
2022/02/08 10:12:27;;;;;;;0.90;0.68;;;5.60;99.90;;;;;;5035835;28;20051;-89
2022/02/08 10:23:01;;;;;;;0.63;0.63;;;5.80;99.90;;;;;;5035310;28;20053;-87
2022/02/08 10:25:44;;;;;;;0.82;0.52;;;5.70;99.90;;;;;;5018021;28;20402;-88
2022/02/08 10:28:53;;;;;;;0.50;0.50;;;5.70;99.90;;;;;;5035709;28;20046;-87
2022/02/08 10:39:19;;;;;;;1.65;0.70;;;5.80;99.90;;;;;;5035294;28;20514;-87
2022/02/08 10:41:47;;;;;;;0.52;0.52;;;5.70;99.90;;;;;;5017675;28;20081;-86
2022/02/08 10:44:14;;;;;;;2.08;0.98;;;5.70;99.90;;;;;;5035406;28;20081;-87
2022/02/08 10:46:41;;;;;;;10.18;1.58;;;5.50;99.90;;;;;;5017723;28;20059;-86
2022/02/08 10:49:14;;;;;;;1.65;0.90;;;5.50;99.90;;;;;;5017734;28;20045;-86
2022/02/08 10:54:32;;;;;;;0.52;0.40;;;5.90;99.90;;;;;;5034736;28;20042;-87
2022/02/08 10:57:10;;;;;;;0.82;0.52;;;6.10;99.90;;;;;;5034594;28;20059;-87
2022/02/08 10:59:52;;;;;;;0.47;0.47;;;6.00;99.90;;;;;;5017828;28;20398;-87
2022/02/08 11:02:25;;;;;;;1.05;0.50;;;6.10;99.90;;;;;;5017431;28;20136;-87
2022/02/08 11:05:05;;;;;;;0.43;0.43;;;6.20;99.90;;;;;;5017358;28;20057;-87
2022/02/08 11:13:10;;;;;;;8.18;0.70;;;6.20;99.90;;;;;;5034699;28;20056;-87
2022/02/08 11:18:41;;;;;;;2.60;0.60;;;6.40;99.90;;;;;;5034389;28;20064;-86
2022/02/08 11:24:41;;;;;;;0.50;0.50;;;6.30;99.90;;;;;;5021556;28;20046;-86
2022/02/08 11:27:14;;;;;;;1.45;0.40;;;6.50;99.90;;;;;;5016847;28;20132;-87
2022/02/08 11:30:04;;;;;;;0.50;0.50;;;6.50;99.90;;;;;;5016531;28;20405;-86
2022/02/08 11:33:15;;;;;;;0.95;0.40;;;6.60;99.90;;;;;;5034127;28;20069;-87
2022/02/08 11:46:38;;;;;;;0.73;0.40;;;6.30;99.90;;;;;;5033959;28;20045;-86
2022/02/08 12:07:49;;;;;;;0.75;0.75;;;6.60;99.90;;;;;;5033409;28;20140;-87
2022/02/08 12:10:25;;;;;;;0.82;0.80;;;6.60;99.90;;;;;;5016802;28;20045;-86
2022/02/08 12:30:44;;;;;;;0.40;0.40;;;6.60;99.90;;;;;;5033356;28;20049;-87
2022/02/08 12:57:54;;;;;;;2.05;0.52;;;7.10;99.90;;;;;;5031630;28;20142;-87
2022/02/08 14:07:00;;;;;;;1.00;0.80;;;7.40;99.90;;;;;;4991921;28;20559;-89
2022/02/08 14:09:59;;;;;;;3.40;0.88;;;7.30;99.90;;;;;;5020978;28;20382;-90
2022/02/08 14:13:08;;;;;;;2.03;0.98;;;7.20;99.90;;;;;;5017842;28;20547;-87
2022/02/08 14:18:52;;;;;;;3.53;1.00;;;7.00;99.90;;;;;;5034490;28;20395;-87
2022/02/08 14:23:52;;;;;;;1.20;0.90;;;7.10;99.90;;;;;;5035185;28;20053;-89
2022/02/08 15:05:29;;;;;;;2.60;1.13;;;7.00;99.90;;;;;;5034963;28;20052;-86
2022/02/08 15:08:05;;;;;;;1.25;0.80;;;7.00;99.90;;;;;;5033654;28;20136;-88
2022/02/08 15:10:54;;;;;;;1.73;0.80;;;7.10;99.90;;;;;;5016593;28;20422;-86
2022/02/08 15:13:25;;;;;;;10.77;0.90;;;7.00;99.90;;;;;;5033842;28;20049;-89
2022/02/08 15:16:24;;;;;;;3.75;1.02;;;7.10;99.90;;;;;;5033581;28;20104;-86
2022/02/08 15:18:51;;;;;;;1.13;0.70;;;7.00;99.90;;;;;;5041344;28;20061;-90
2022/02/08 15:21:25;;;;;;;1.63;0.98;;;7.00;99.90;;;;;;5052652;28;20045;-86
2022/02/08 15:23:53;;;;;;;4.95;1.13;;;7.00;99.90;;;;;;5051754;28;20061;-91
2022/02/08 15:26:20;;;;;;;1.63;0.70;;;7.00;99.90;;;;;;5051204;28;20124;-88
2022/02/08 15:28:48;;;;;;;2.80;0.88;;;7.00;99.90;;;;;;5052755;28;20124;-87
2022/02/08 15:31:17;;;;;;;4.15;0.73;;;7.00;99.90;;;;;;5053468;28;20053;-89
2022/02/08 15:33:45;;;;;;;3.65;1.77;;;6.90;99.90;;;;;;5051889;28;20056;-87
2022/02/08 15:36:15;;;;;;;1.65;1.23;;;6.90;99.90;;;;;;5052170;28;20059;-87
2022/02/08 15:38:50;;;;;;;1.92;1.08;;;6.90;99.90;;;;;;5052394;28;20053;-87
2022/02/08 15:41:17;;;;;;;2.35;1.17;;;6.90;99.90;;;;;;5052141;28;20482;-87
2022/02/08 15:43:44;;;;;;;6.47;1.45;;;6.90;99.90;;;;;;5052209;28;20087;-87
2022/02/08 15:46:20;;;;;;;4.88;1.15;;;6.90;99.90;;;;;;5051846;28;20497;-88
2022/02/08 15:48:49;;;;;;;1.50;1.17;;;6.90;99.90;;;;;;5052043;28;20045;-87
2022/02/08 16:05:09;;;;;;;2.20;1.38;;;6.70;99.90;;;;;;5053007;28;20424;-88
2022/02/08 16:07:13;;;;;;;1.33;1.20;;;6.70;99.90;;;;;;5052441;28;20536;-87
2022/02/08 16:09:49;;;;;;;2.42;1.00;;;6.70;99.90;;;;;;5051664;28;20063;-87
2022/02/08 16:25:29;;;;;;;3.65;1.30;;;6.70;99.90;;;;;;5032131;28;20052;-86
2022/02/08 16:45:56;;;;;;;3.03;1.67;;;6.80;99.90;;;;;;5032024;28;20050;-86
2022/02/08 16:46:07;;;;;;;4.15;1.80;;;6.70;99.90;;;;;;5028456;28;20102;-87
2022/02/08 16:48:55;;;;;;;4.47;1.90;;;6.70;99.90;;;;;;5013610;28;20056;-89
2022/02/08 16:56:01;;;;;;;2.58;1.40;;;6.70;99.90;;;;;;5015320;28;20128;-86
2022/02/08 17:01:09;;;;;;;1.88;1.10;;;6.70;99.90;;;;;;5016185;28;20558;-87
2022/02/08 17:03:45;;;;;;;3.88;2.45;;;6.70;99.90;;;;;;5015028;28;20585;-86
2022/02/08 17:06:23;;;;;;;5.03;1.88;;;6.70;99.90;;;;;;4998803;28;20057;-89
2022/02/08 17:09:03;;;;;;;2.05;1.15;;;6.70;99.90;;;;;;5010800;28;20056;-87
2022/02/08 17:11:42;;;;;;;3.85;1.60;;;6.70;99.90;;;;;;5014950;28;20049;-87
2022/02/08 17:46:48;;;;;;;1.23;0.90;;;6.90;99.90;;;;;;5031239;28;20160;-87
2022/02/08 17:49:15;;;;;;;2.95;0.98;;;7.00;99.90;;;;;;5035597;28;20049;-87
2022/02/08 17:51:41;;;;;;;2.15;1.17;;;7.00;99.90;;;;;;5018135;28;20073;-85
2022/02/08 17:54:12;;;;;;;0.80;0.80;;;7.00;99.90;;;;;;5017966;28;20140;-86
2022/02/08 17:56:39;;;;;;;2.63;2.00;;;6.90;99.90;;;;;;5018240;28;20140;-87
2022/02/08 17:59:08;;;;;;;2.97;1.10;;;7.00;99.90;;;;;;5035280;28;20115;-87
2022/02/08 18:01:35;;;;;;;1.77;1.00;;;7.00;99.90;;;;;;5018494;28;20179;-87
2022/02/08 18:04:01;;;;;;;1.05;1.05;;;7.00;99.90;;;;;;5017959;28;20049;-86
2022/02/08 18:06:28;;;;;;;1.67;1.00;;;7.00;99.90;;;;;;5013137;28;20048;-87
2022/02/08 18:08:55;;;;;;;1.75;1.58;;;7.00;99.90;;;;;;5014526;28;20045;-87
2022/02/08 18:11:26;;;;;;;3.65;1.33;;;7.00;99.90;;;;;;5014150;28;20053;-87
2022/02/08 18:13:53;;;;;;;3.35;0.70;;;7.00;99.90;;;;;;4998596;28;20092;-87
2022/02/08 18:16:23;;;;;;;3.88;1.25;;;7.10;99.90;;;;;;5015461;28;20054;-87
2022/02/08 18:18:49;;;;;;;1.02;0.80;;;7.00;99.90;;;;;;5015015;28;20065;-87
2022/02/08 18:21:31;;;;;;;1.23;1.00;;;7.10;99.90;;;;;;5012305;28;20084;-87
2022/02/08 18:24:28;;;;;;;0.80;0.80;;;7.10;99.90;;;;;;5013364;28;20049;-87
2022/02/08 19:03:37;;;;;;;0.70;0.70;;;7.10;99.90;;;;;;5013442;28;20054;-87
2022/02/08 19:06:47;;;;;;;0.50;0.50;;;7.10;99.90;;;;;;4993465;28;20046;-87
2022/02/08 19:15:41;;;;;;;0.93;0.73;;;7.10;99.90;;;;;;5014183;28;20049;-87
2022/02/08 19:18:31;;;;;;;0.75;0.55;;;7.00;99.90;;;;;;5013766;28;20064;-87
2022/02/08 19:23:34;;;;;;;1.52;0.57;;;7.10;99.90;;;;;;5014464;28;20084;-87
2022/02/08 19:26:04;;;;;;;0.95;0.80;;;7.00;99.90;;;;;;5014516;28;20588;-87
2022/02/08 19:28:30;;;;;;;1.17;0.70;;;7.00;99.90;;;;;;5013382;28;20081;-87
2022/02/08 19:30:57;;;;;;;0.85;0.80;;;7.10;99.90;;;;;;5013099;28;20558;-88
2022/02/08 19:33:26;;;;;;;0.50;0.50;;;7.00;99.90;;;;;;5013866;28;20050;-88
2022/02/08 19:35:53;;;;;;;3.65;0.90;;;7.00;99.90;;;;;;5013116;28;20056;-87
2022/02/08 19:38:24;;;;;;;0.70;0.70;;;7.00;99.90;;;;;;5012851;28;20075;-87
2022/02/08 19:40:52;;;;;;;5.05;1.10;;;7.00;99.90;;;;;;5014209;28;20085;-87
2022/02/08 19:43:19;;;;;;;0.50;0.50;;;7.00;99.90;;;;;;5013053;28;20491;-87
2022/02/08 19:45:46;;;;;;;0.60;0.60;;;7.00;99.90;;;;;;5013803;28;20053;-87
2022/02/08 19:48:14;;;;;;;0.60;0.40;;;6.90;99.90;;;;;;5013852;28;20414;-86
2022/02/08 19:50:47;;;;;;;0.43;0.38;;;6.90;99.90;;;;;;4997811;28;20053;-86
2022/02/08 19:53:14;;;;;;;0.70;0.70;;;7.00;99.90;;;;;;4996605;28;20498;-87
2022/02/08 19:58:27;;;;;;;0.70;0.70;;;7.00;99.90;;;;;;5013952;28;20397;-87
2022/02/08 20:01:09;;;;;;;0.60;0.60;;;7.00;99.90;;;;;;5011735;28;20054;-87
2022/02/08 20:03:42;;;;;;;1.33;0.80;;;7.00;99.90;;;;;;5013627;28;20050;-88
2022/02/08 20:06:09;;;;;;;0.70;0.70;;;7.00;99.90;;;;;;5013590;28;20124;-88
2022/02/08 20:08:36;;;;;;;0.50;0.50;;;7.10;99.90;;;;;;5013607;28;20092;-90
2022/02/08 20:11:03;;;;;;;0.80;0.80;;;7.10;99.90;;;;;;5012175;28;20073;-86
2022/02/08 20:13:30;;;;;;;0.50;0.50;;;7.10;99.90;;;;;;5012460;28;20058;-87
2022/02/08 20:15:58;;;;;;;0.50;0.50;;;7.10;99.90;;;;;;5013380;28;20080;-87
2022/02/08 20:18:26;;;;;;;1.05;0.60;;;7.10;99.90;;;;;;5012769;28;20164;-87
2022/02/08 20:20:53;;;;;;;1.17;0.50;;;7.10;99.90;;;;;;4996152;28;20050;-86
2022/02/08 20:23:21;;;;;;;1.00;0.50;;;7.10;99.90;;;;;;5013270;28;20233;-89
2022/02/08 20:25:51;;;;;;;0.40;0.40;;;7.10;99.90;;;;;;5012075;28;20107;-88
2022/02/08 20:28:35;;;;;;;0.80;0.80;;;7.10;99.90;;;;;;5013408;28;20483;-88
2022/02/08 20:31:03;;;;;;;0.70;0.70;;;7.10;99.90;;;;;;5013116;28;20137;-87
2022/02/08 20:33:30;;;;;;;0.98;0.75;;;7.20;99.90;;;;;;5011826;28;20054;-88
2022/02/08 20:35:57;;;;;;;2.45;1.50;;;7.20;99.90;;;;;;5012022;28;20053;-88
2022/02/08 20:38:25;;;;;;;2.15;0.70;;;7.20;99.90;;;;;;5012400;28;20053;-87
2022/02/08 20:40:55;;;;;;;0.70;0.70;;;7.20;99.90;;;;;;5012403;28;20332;-87
2022/02/08 20:43:22;;;;;;;1.02;1.00;;;7.20;99.90;;;;;;5011405;28;20077;-87
2022/02/08 20:45:49;;;;;;;1.25;1.13;;;7.20;99.90;;;;;;5011056;28;20060;-86
2022/02/08 20:48:18;;;;;;;0.60;0.60;;;7.20;99.90;;;;;;5012513;28;20053;-87
2022/02/08 20:50:46;;;;;;;1.48;0.73;;;7.20;99.90;;;;;;5011398;28;20048;-89
2022/02/08 20:53:18;;;;;;;0.90;0.80;;;7.20;99.90;;;;;;5011344;28;20064;-87
2022/02/08 20:55:49;;;;;;;1.63;1.25;;;7.30;99.90;;;;;;5010850;28;20050;-87
2022/02/08 20:58:18;;;;;;;1.00;1.00;;;7.20;99.90;;;;;;5010980;28;20054;-88
2022/02/08 21:00:47;;;;;;;1.33;1.13;;;7.30;99.90;;;;;;5011149;28;20462;-88
2022/02/08 21:03:25;;;;;;;1.23;1.13;;;7.20;99.90;;;;;;4994971;28;20395;-86